createdAt,value
2018-12-13T00:00:26.697Z,0
2018-12-13T00:01:37.012Z,0
2018-12-13T00:02:47.096Z,0
2018-12-13T00:03:57.197Z,0
2018-12-13T00:05:07.014Z,0
2018-12-13T00:06:17.079Z,0
2018-12-13T00:07:27.135Z,0
2018-12-13T00:08:36.944Z,0
2018-12-13T00:09:46.750Z,0
2018-12-13T00:10:56.801Z,0
2018-12-13T00:12:06.687Z,0
2018-12-13T00:13:16.846Z,0
2018-12-13T00:14:26.435Z,0
2018-12-13T00:15:36.722Z,0
2018-12-13T00:16:46.547Z,0
2018-12-13T00:17:56.374Z,0
2018-12-13T00:19:06.426Z,0
2018-12-13T00:20:16.541Z,0
2018-12-13T00:21:26.605Z,0
2018-12-13T00:22:36.656Z,0
2018-12-13T00:23:46.740Z,0
2018-12-13T00:24:56.823Z,0
2018-12-13T00:26:06.905Z,0
2018-12-13T00:27:17.173Z,0
2018-12-13T00:28:27.260Z,0
2018-12-13T00:29:37.308Z,0
2018-12-13T00:30:47.370Z,0
2018-12-13T00:31:57.173Z,0
2018-12-13T00:33:07.205Z,0
2018-12-13T00:34:16.990Z,0
2018-12-13T00:35:26.803Z,0
2018-12-13T00:36:42.119Z,0
2018-12-13T00:37:51.925Z,0
2018-12-13T00:39:03.410Z,0
2018-12-13T00:40:13.719Z,0
2018-12-13T00:41:23.776Z,0
2018-12-13T00:42:33.844Z,0
2018-12-13T00:43:43.653Z,0
2018-12-13T00:44:53.714Z,0
2018-12-13T00:46:03.785Z,0
2018-12-13T00:47:13.855Z,0
2018-12-13T00:48:23.737Z,0
2018-12-13T00:49:33.795Z,0
2018-12-13T00:50:43.850Z,0
2018-12-13T00:51:53.907Z,0
2018-12-13T00:53:03.973Z,0
2018-12-13T00:54:14.244Z,0
2018-12-13T00:55:24.310Z,0
2018-12-13T00:56:34.387Z,0
2018-12-13T00:57:44.452Z,0
2018-12-13T00:58:54.521Z,0
2018-12-13T01:00:04.874Z,0
2018-12-13T01:01:14.707Z,0
2018-12-13T01:02:25.421Z,0
2018-12-13T01:03:35.500Z,0
2018-12-13T01:04:45.590Z,0
2018-12-13T01:05:55.685Z,0
2018-12-13T01:07:05.741Z,0
2018-12-13T01:08:16.423Z,0
2018-12-13T01:09:26.211Z,0
2018-12-13T01:10:36.639Z,0
2018-12-13T01:11:46.777Z,0
2018-12-13T01:12:56.857Z,0
2018-12-13T01:14:06.915Z,0
2018-12-13T01:15:16.974Z,0
2018-12-13T01:16:27.031Z,0
2018-12-13T01:17:37.132Z,0
2018-12-13T01:18:46.935Z,0
2018-12-13T01:19:56.981Z,0
2018-12-13T01:21:07.023Z,0
2018-12-13T01:22:17.069Z,0
2018-12-13T01:23:27.138Z,0
2018-12-13T01:24:37.177Z,0
2018-12-13T01:25:46.987Z,0
2018-12-13T01:26:57.066Z,0
2018-12-13T01:28:07.829Z,0
2018-12-13T01:29:18.043Z,0
2018-12-13T01:30:28.170Z,0
2018-12-13T01:31:38.226Z,0
2018-12-13T01:32:48.036Z,0
2018-12-13T01:33:58.102Z,0
2018-12-13T01:35:08.166Z,0
2018-12-13T01:36:17.728Z,0
2018-12-13T01:37:27.802Z,0
2018-12-13T01:38:37.693Z,0
2018-12-13T01:39:47.780Z,0
2018-12-13T01:40:57.643Z,0
2018-12-13T01:42:08.719Z,0
2018-12-13T01:43:18.793Z,0
2018-12-13T01:44:28.866Z,0
2018-12-13T01:45:38.958Z,0
2018-12-13T01:46:48.758Z,0
2018-12-13T01:47:58.895Z,0
2018-12-13T01:49:09.983Z,0
2018-12-13T01:50:20.092Z,0
2018-12-13T01:51:29.891Z,0
2018-12-13T01:52:39.986Z,0
2018-12-13T01:53:50.035Z,0
2018-12-13T01:55:00.087Z,0
2018-12-13T01:56:10.145Z,0
2018-12-13T01:57:20.187Z,0
2018-12-13T01:58:30.241Z,0
2018-12-13T01:59:40.298Z,0
2018-12-13T02:00:50.431Z,0
2018-12-13T02:02:00.482Z,0
2018-12-13T02:03:10.529Z,0
2018-12-13T02:04:20.780Z,0
2018-12-13T02:05:30.600Z,0
2018-12-13T02:06:40.894Z,0
2018-12-13T02:07:50.936Z,0
2018-12-13T02:09:00.730Z,0
2018-12-13T02:10:10.785Z,0
2018-12-13T02:11:20.935Z,0
2018-12-13T02:12:31.036Z,0
2018-12-13T02:13:41.114Z,0
2018-12-13T02:14:51.174Z,0
2018-12-13T02:16:01.232Z,0
2018-12-13T02:17:11.298Z,0
2018-12-13T02:18:21.415Z,0
2018-12-13T02:19:31.212Z,0
2018-12-13T02:20:41.331Z,0
2018-12-13T02:21:51.792Z,0
2018-12-13T02:23:01.865Z,0
2018-12-13T02:24:11.908Z,0
2018-12-13T02:25:21.700Z,0
2018-12-13T02:26:31.813Z,0
2018-12-13T02:27:41.870Z,0
2018-12-13T02:28:51.925Z,0
2018-12-13T02:30:01.742Z,0
2018-12-13T02:31:11.801Z,0
2018-12-13T02:32:21.605Z,0
2018-12-13T02:33:31.415Z,0
2018-12-13T02:34:41.484Z,0
2018-12-13T02:35:51.288Z,0
2018-12-13T02:37:08.076Z,0
2018-12-13T02:38:18.167Z,0
2018-12-13T02:39:28.254Z,0
2018-12-13T02:40:38.577Z,0
2018-12-13T02:41:48.656Z,0
2018-12-13T02:42:58.763Z,0
2018-12-13T02:44:08.822Z,0
2018-12-13T02:45:18.633Z,0
2018-12-13T02:46:28.775Z,0
2018-12-13T02:47:38.882Z,0
2018-12-13T02:48:48.933Z,0
2018-12-13T02:49:59.005Z,0
2018-12-13T02:51:09.058Z,0
2018-12-13T02:52:18.598Z,0
2018-12-13T02:53:28.403Z,0
2018-12-13T02:54:38.461Z,0
2018-12-13T02:55:48.866Z,0
2018-12-13T02:56:59.167Z,0
2018-12-13T02:58:10.338Z,0
2018-12-13T02:59:20.394Z,0
2018-12-13T03:00:30.399Z,0
2018-12-13T03:01:40.480Z,0
2018-12-13T03:02:50.539Z,0
2018-12-13T03:35:03.111Z,0
2018-12-13T03:36:13.184Z,0
2018-12-13T03:37:30.144Z,0
2018-12-13T03:38:40.199Z,0
2018-12-13T03:39:50.260Z,0
2018-12-13T03:41:00.324Z,0
2018-12-13T03:42:10.392Z,0
2018-12-13T03:43:20.433Z,0
2018-12-13T03:44:30.495Z,0
2018-12-13T03:45:40.586Z,0
2018-12-13T03:46:50.677Z,0
2018-12-13T03:48:02.832Z,0
2018-12-13T03:49:12.895Z,0
2018-12-13T03:50:22.688Z,0
2018-12-13T03:51:32.791Z,0
2018-12-13T03:52:42.862Z,0
2018-12-13T03:53:52.910Z,0
2018-12-13T03:55:02.478Z,0
2018-12-13T03:56:12.538Z,0
2018-12-13T03:57:22.363Z,0
2018-12-13T03:58:32.558Z,0
2018-12-13T03:59:42.354Z,0
2018-12-13T04:00:52.177Z,0
2018-12-13T04:02:02.261Z,0
2018-12-13T04:03:11.836Z,0
2018-12-13T04:04:21.467Z,0
2018-12-13T04:05:31.590Z,0
2018-12-13T04:06:41.410Z,0
2018-12-13T04:07:51.497Z,0
2018-12-13T04:09:01.573Z,0
2018-12-13T04:10:12.694Z,0
2018-12-13T04:11:22.752Z,0
2018-12-13T04:12:32.807Z,0
2018-12-13T04:13:42.907Z,0
2018-12-13T04:14:52.971Z,0
2018-12-13T04:16:03.108Z,0
2018-12-13T04:17:12.934Z,0
2018-12-13T04:18:22.757Z,0
2018-12-13T04:19:32.835Z,0
2018-12-13T04:20:42.906Z,0
2018-12-13T04:21:53.156Z,0
2018-12-13T04:23:04.544Z,0
2018-12-13T04:24:14.146Z,0
2018-12-13T04:25:24.223Z,0
2018-12-13T04:26:34.307Z,0
2018-12-13T04:27:44.429Z,0
2018-12-13T04:28:54.513Z,0
2018-12-13T04:30:05.819Z,0
2018-12-13T04:31:15.871Z,0
2018-12-13T04:32:25.680Z,0
2018-12-13T04:33:35.750Z,0
2018-12-13T04:34:45.907Z,0
2018-12-13T04:35:55.719Z,0
2018-12-13T04:37:05.796Z,0
2018-12-13T04:38:15.880Z,0
2018-12-13T04:39:25.774Z,0
2018-12-13T04:40:35.835Z,0
2018-12-13T04:41:45.694Z,0
2018-12-13T04:42:55.807Z,0
2018-12-13T04:44:05.868Z,0
2018-12-13T04:45:16.002Z,0
2018-12-13T04:46:26.078Z,0
2018-12-13T04:47:36.129Z,0
2018-12-13T04:48:46.248Z,0
2018-12-13T04:49:56.887Z,0
2018-12-13T04:51:07.015Z,0
2018-12-13T04:52:17.133Z,0
2018-12-13T04:53:27.412Z,0
2018-12-13T04:54:37.235Z,0
2018-12-13T04:55:47.301Z,0
2018-12-13T04:56:57.425Z,0
2018-12-13T04:58:07.532Z,0
2018-12-13T04:59:17.086Z,0
2018-12-13T05:00:27.389Z,0
2018-12-13T05:01:37.190Z,0
2018-12-13T05:02:47.256Z,0
2018-12-13T05:03:57.302Z,0
2018-12-13T05:05:07.108Z,0
2018-12-13T05:06:17.615Z,0
2018-12-13T05:07:27.171Z,0
2018-12-13T05:08:37.297Z,0
2018-12-13T05:09:47.085Z,0
2018-12-13T05:10:56.883Z,0
2018-12-13T05:12:06.953Z,0
2018-12-13T05:13:17.013Z,0
2018-12-13T05:14:27.088Z,0
2018-12-13T05:15:37.170Z,0
2018-12-13T05:16:47.217Z,0
2018-12-13T05:17:57.388Z,0
2018-12-13T05:19:07.350Z,0
2018-12-13T05:20:16.950Z,0
2018-12-13T05:21:27.093Z,0
2018-12-13T05:22:36.914Z,0
2018-12-13T05:23:47.003Z,0
2018-12-13T05:24:56.819Z,0
2018-12-13T05:26:06.876Z,0
2018-12-13T05:27:16.948Z,0
2018-12-13T05:28:26.993Z,0
2018-12-13T05:29:37.157Z,0
2018-12-13T05:30:47.278Z,0
2018-12-13T05:31:57.333Z,0
2018-12-13T05:33:09.259Z,0
2018-12-13T05:34:19.411Z,0
2018-12-13T05:35:29.460Z,0
2018-12-13T05:36:39.502Z,0
2018-12-13T05:37:55.298Z,0
2018-12-13T05:39:05.357Z,0
2018-12-13T05:40:15.407Z,0
2018-12-13T05:41:25.215Z,0
2018-12-13T05:42:35.048Z,0
2018-12-13T05:43:44.910Z,0
2018-12-13T05:44:54.966Z,0
2018-12-13T05:46:06.227Z,0
2018-12-13T05:47:16.285Z,0
2018-12-13T05:48:26.398Z,0
2018-12-13T05:49:36.377Z,0
2018-12-13T05:50:46.211Z,0
2018-12-13T05:51:56.265Z,0
2018-12-13T05:53:06.320Z,0
2018-12-13T05:54:16.363Z,0
2018-12-13T05:55:26.467Z,0
2018-12-13T05:56:36.559Z,0
2018-12-13T05:57:46.627Z,0
2018-12-13T05:58:56.690Z,0
2018-12-13T06:00:06.750Z,0
2018-12-13T06:01:16.615Z,0
2018-12-13T06:02:26.420Z,0
2018-12-13T06:03:36.273Z,0
2018-12-13T06:04:46.344Z,0
2018-12-13T06:05:56.409Z,0
2018-12-13T06:07:06.205Z,0
2018-12-13T06:08:16.261Z,0
2018-12-13T06:09:26.315Z,0
2018-12-13T06:10:36.155Z,0
2018-12-13T06:11:46.205Z,0
2018-12-13T06:12:56.347Z,0
2018-12-13T06:14:07.263Z,0
2018-12-13T06:15:17.328Z,0
2018-12-13T06:16:27.372Z,0
2018-12-13T06:17:37.168Z,0
2018-12-13T06:18:47.268Z,0
2018-12-13T06:19:57.319Z,0
2018-12-13T06:21:11.795Z,0
2018-12-13T06:22:21.961Z,0
2018-12-13T06:23:32.031Z,0
2018-12-13T06:24:42.343Z,0
2018-12-13T06:25:53.037Z,0
2018-12-13T06:27:03.094Z,0
2018-12-13T06:28:13.153Z,0
2018-12-13T06:29:23.308Z,0
2018-12-13T06:30:33.479Z,0
2018-12-13T06:31:43.596Z,0
2018-12-13T06:32:53.661Z,0
2018-12-13T06:34:03.725Z,0
2018-12-13T06:35:13.794Z,0
2018-12-13T06:36:23.961Z,0
2018-12-13T06:37:34.018Z,0
2018-12-13T06:38:44.089Z,0
2018-12-13T06:39:54.346Z,0
2018-12-13T06:41:04.424Z,0
2018-12-13T06:42:14.480Z,0
2018-12-13T06:43:24.285Z,0
2018-12-13T06:44:34.097Z,0
2018-12-13T06:45:43.894Z,0
2018-12-13T06:46:53.965Z,0
2018-12-13T06:48:04.330Z,0
2018-12-13T06:49:14.381Z,0
2018-12-13T06:50:24.181Z,0
2018-12-13T06:51:33.971Z,0
2018-12-13T06:52:44.019Z,0
2018-12-13T06:53:54.049Z,0
2018-12-13T06:55:04.904Z,0
2018-12-13T06:56:14.954Z,0
2018-12-13T06:57:25.021Z,0
2018-12-13T06:58:35.077Z,0
2018-12-13T06:59:45.191Z,5
2018-12-13T07:00:55.260Z,5
2018-12-13T07:02:05.069Z,5
2018-12-13T07:03:14.625Z,5
2018-12-13T07:04:24.682Z,5
2018-12-13T07:05:34.813Z,5
2018-12-13T07:06:44.615Z,5
2018-12-13T07:07:54.663Z,5
2018-12-13T07:09:04.715Z,5
2018-12-13T07:10:14.776Z,5
2018-12-13T07:11:24.900Z,5
2018-12-13T07:12:34.809Z,5
2018-12-13T07:13:44.848Z,5
2018-12-13T07:14:54.645Z,5
2018-12-13T07:16:04.720Z,5
2018-12-13T07:17:14.861Z,5
2018-12-13T07:18:24.668Z,5
2018-12-13T07:19:34.918Z,5
2018-12-13T07:20:44.762Z,10
2018-12-13T07:21:54.832Z,10
2018-12-13T07:23:04.912Z,10
2018-12-13T07:24:15.031Z,10
2018-12-13T07:25:25.218Z,10
2018-12-13T07:26:35.281Z,10
2018-12-13T07:27:45.370Z,10
2018-12-13T07:28:55.441Z,10
2018-12-13T07:30:08.148Z,10
2018-12-13T07:31:18.207Z,15
2018-12-13T07:32:28.242Z,15
2018-12-13T07:33:38.331Z,15
2018-12-13T07:34:48.415Z,15
2018-12-13T07:35:58.596Z,15
2018-12-13T07:37:08.674Z,15
2018-12-13T07:38:23.763Z,15
2018-12-13T07:39:34.042Z,15
2018-12-13T07:40:44.147Z,15
2018-12-13T07:41:54.205Z,15
2018-12-13T07:43:04.261Z,15
2018-12-13T07:44:14.037Z,15
2018-12-13T07:45:24.093Z,20
2018-12-13T07:46:34.146Z,20
2018-12-13T07:47:44.219Z,20
2018-12-13T07:48:58.933Z,20
2018-12-13T07:50:08.731Z,20
2018-12-13T07:51:18.544Z,20
2018-12-13T07:52:28.593Z,20
2018-12-13T07:53:38.649Z,20
2018-12-13T07:54:48.732Z,20
2018-12-13T07:55:58.779Z,25
2018-12-13T07:57:08.584Z,20
2018-12-13T07:58:18.642Z,20
2018-12-13T07:59:28.687Z,20
2018-12-13T08:00:38.483Z,25
2018-12-13T08:01:48.273Z,25
2018-12-13T08:02:58.355Z,25
2018-12-13T08:04:10.200Z,25
2018-12-13T08:05:20.249Z,25
2018-12-13T08:06:30.330Z,25
2018-12-13T08:07:40.412Z,25
2018-12-13T08:08:50.232Z,25
2018-12-13T08:10:03.158Z,25
2018-12-13T08:11:12.720Z,25
2018-12-13T08:12:22.777Z,25
2018-12-13T08:13:32.848Z,30
2018-12-13T08:14:42.991Z,30
2018-12-13T08:15:52.816Z,30
2018-12-13T08:17:04.013Z,30
2018-12-13T08:18:13.803Z,30
2018-12-13T08:19:23.867Z,35
2018-12-13T08:20:33.910Z,35
2018-12-13T08:21:43.716Z,35
2018-12-13T08:22:54.784Z,35
2018-12-13T08:24:04.848Z,35
2018-12-13T08:25:14.919Z,35
2018-12-13T08:26:24.878Z,35
2018-12-13T08:27:34.959Z,35
2018-12-13T08:28:44.773Z,40
2018-12-13T08:29:54.809Z,35
2018-12-13T08:31:04.640Z,35
2018-12-13T08:32:14.710Z,35
2018-12-13T08:33:24.555Z,35
2018-12-13T08:34:34.346Z,35
2018-12-13T08:35:44.424Z,35
2018-12-13T08:36:54.492Z,35
2018-12-13T08:38:04.617Z,40
2018-12-13T08:39:14.642Z,40
2018-12-13T08:40:24.816Z,40
2018-12-13T08:41:34.867Z,40
2018-12-13T08:42:44.700Z,40
2018-12-13T08:43:54.808Z,40
2018-12-13T08:45:05.382Z,40
2018-12-13T08:46:15.488Z,40
2018-12-13T08:47:25.568Z,40
2018-12-13T08:48:35.631Z,40
2018-12-13T08:49:45.862Z,40
2018-12-13T08:50:56.820Z,40
2018-12-13T08:52:06.619Z,40
2018-12-13T08:53:17.471Z,40
2018-12-13T08:54:28.460Z,40
2018-12-13T08:55:38.564Z,40
2018-12-13T08:56:48.637Z,40
2018-12-13T08:57:58.736Z,40
2018-12-13T08:59:10.271Z,40
2018-12-13T09:00:20.808Z,40
2018-12-13T09:01:32.114Z,40
2018-12-13T09:02:43.011Z,40
2018-12-13T09:03:53.899Z,40
2018-12-13T09:05:05.354Z,45
2018-12-13T09:06:16.328Z,45
2018-12-13T09:07:26.523Z,45
2018-12-13T09:08:42.577Z,45
2018-12-13T09:09:52.894Z,45
2018-12-13T09:11:03.704Z,45
2018-12-13T09:12:14.078Z,45
2018-12-13T09:13:24.165Z,50
2018-12-13T09:14:34.040Z,50
2018-12-13T09:15:44.758Z,55
2018-12-13T09:16:55.078Z,55
2018-12-13T09:18:05.424Z,55
2018-12-13T09:19:15.998Z,50
2018-12-13T09:20:27.025Z,50
2018-12-13T09:21:37.843Z,50
2018-12-13T09:22:48.684Z,50
2018-12-13T09:23:58.794Z,50
2018-12-13T09:25:09.545Z,50
2018-12-13T09:26:19.992Z,50
2018-12-13T09:27:30.135Z,50
2018-12-13T09:28:40.209Z,50
2018-12-13T09:29:50.946Z,50
2018-12-13T09:31:02.218Z,50
2018-12-13T09:32:12.915Z,45
2018-12-13T09:33:23.544Z,45
2018-12-13T09:34:34.736Z,45
2018-12-13T09:35:45.596Z,50
2018-12-13T09:36:55.864Z,50
2018-12-13T09:38:08.157Z,45
2018-12-13T09:39:18.988Z,45
2018-12-13T09:40:29.199Z,45
2018-12-13T09:41:40.294Z,50
2018-12-13T09:42:50.883Z,50
2018-12-13T09:44:01.834Z,50
2018-12-13T09:45:12.447Z,50
2018-12-13T09:46:22.992Z,50
2018-12-13T09:47:33.704Z,50
2018-12-13T09:48:45.012Z,50
2018-12-13T09:49:56.443Z,50
2018-12-13T09:51:06.969Z,50
2018-12-13T09:52:17.452Z,50
2018-12-13T09:53:27.254Z,50
2018-12-13T09:54:37.932Z,50
2018-12-13T09:55:49.254Z,50
2018-12-13T09:56:59.658Z,45
2018-12-13T09:58:10.394Z,45
2018-12-13T09:59:20.770Z,45
2018-12-13T10:00:30.567Z,45
2018-12-13T10:01:40.665Z,50
2018-12-13T10:02:50.778Z,50
2018-12-13T10:04:00.330Z,45
2018-12-13T10:05:10.429Z,45
2018-12-13T10:06:20.547Z,50
2018-12-13T10:07:30.607Z,50
2018-12-13T10:08:46.109Z,45
2018-12-13T10:09:56.435Z,45
2018-12-13T10:11:06.233Z,45
2018-12-13T10:12:16.293Z,45
2018-12-13T10:13:26.102Z,45
2018-12-13T10:14:36.172Z,45
2018-12-13T10:15:45.987Z,45
2018-12-13T10:16:56.071Z,45
2018-12-13T10:18:05.913Z,45
2018-12-13T10:19:15.727Z,45
2018-12-13T10:20:25.810Z,45
2018-12-13T10:21:35.624Z,50
2018-12-13T10:22:45.693Z,50
2018-12-13T10:23:55.503Z,45
2018-12-13T10:25:05.585Z,45
2018-12-13T10:26:15.658Z,45
2018-12-13T10:27:25.733Z,45
2018-12-13T10:28:35.332Z,50
2018-12-13T10:29:45.144Z,50
2018-12-13T10:30:55.232Z,50
2018-12-13T10:32:06.148Z,50
2018-12-13T10:33:16.252Z,50
2018-12-13T10:34:26.356Z,45
2018-12-13T10:35:36.181Z,45
2018-12-13T10:36:46.250Z,45
2018-12-13T10:37:56.175Z,45
2018-12-13T10:39:06.316Z,45
2018-12-13T10:40:16.381Z,40
2018-12-13T10:41:27.583Z,45
2018-12-13T10:42:37.196Z,40
2018-12-13T10:43:47.332Z,40
2018-12-13T10:44:57.446Z,40
2018-12-13T10:46:07.581Z,40
2018-12-13T10:47:17.655Z,40
2018-12-13T10:48:27.731Z,40
2018-12-13T10:49:37.827Z,40
2018-12-13T10:50:47.945Z,45
2018-12-13T10:51:58.001Z,45
2018-12-13T10:53:07.830Z,40
2018-12-13T10:54:17.636Z,40
2018-12-13T10:55:27.432Z,40
2018-12-13T10:56:37.329Z,40
2018-12-13T10:57:47.481Z,35
2018-12-13T10:58:57.291Z,35
2018-12-13T11:00:07.604Z,35
2018-12-13T11:01:17.670Z,40
2018-12-13T11:02:27.470Z,35
2018-12-13T11:03:37.524Z,35
2018-12-13T11:04:47.337Z,35
2018-12-13T11:05:57.428Z,35
2018-12-13T11:07:10.456Z,35
2018-12-13T11:08:20.508Z,35
2018-12-13T11:09:30.565Z,35
2018-12-13T11:10:40.893Z,35
2018-12-13T11:11:50.995Z,35
2018-12-13T11:13:01.387Z,35
2018-12-13T11:14:11.029Z,35
2018-12-13T11:15:20.830Z,35
2018-12-13T11:16:30.638Z,35
2018-12-13T11:17:40.915Z,30
2018-12-13T11:18:51.000Z,35
2018-12-13T11:20:02.488Z,35
2018-12-13T11:21:17.329Z,40
2018-12-13T11:22:27.882Z,40
2018-12-13T11:23:37.931Z,40
2018-12-13T11:24:47.978Z,40
2018-12-13T11:25:58.037Z,40
2018-12-13T11:27:08.644Z,40
2018-12-13T11:28:18.490Z,40
2018-12-13T11:29:28.766Z,35
2018-12-13T11:30:38.874Z,40
2018-12-13T11:31:48.944Z,40
2018-12-13T11:32:59.001Z,40
2018-12-13T11:34:08.550Z,40
2018-12-13T11:35:20.123Z,40
2018-12-13T11:36:29.957Z,40
2018-12-13T11:37:40.031Z,40
2018-12-13T11:38:50.115Z,40
2018-12-13T11:40:00.341Z,40
2018-12-13T11:41:10.409Z,40
2018-12-13T11:42:20.679Z,45
2018-12-13T11:43:30.737Z,45
2018-12-13T11:44:40.788Z,45
2018-12-13T11:45:50.585Z,45
2018-12-13T11:47:00.629Z,45
2018-12-13T11:48:10.430Z,45
2018-12-13T11:49:21.962Z,50
2018-12-13T11:50:32.756Z,45
2018-12-13T11:51:43.072Z,45
2018-12-13T11:52:54.482Z,45
2018-12-13T11:54:04.356Z,40
2018-12-13T11:55:14.444Z,40
2018-12-13T11:56:24.517Z,40
2018-12-13T11:57:34.340Z,40
2018-12-13T11:58:44.147Z,40
2018-12-13T11:59:54.219Z,40
2018-12-13T12:01:04.294Z,40
2018-12-13T12:02:14.327Z,40
2018-12-13T12:03:24.395Z,40
2018-12-13T12:04:34.470Z,40
2018-12-13T12:05:44.540Z,40
2018-12-13T12:06:54.626Z,45
2018-12-13T12:08:05.548Z,45
2018-12-13T12:09:21.721Z,50
2018-12-13T12:10:31.735Z,50
2018-12-13T12:11:41.789Z,50
2018-12-13T12:12:51.868Z,50
2018-12-13T12:14:01.938Z,45
2018-12-13T12:15:12.941Z,45
2018-12-13T12:16:23.059Z,40
2018-12-13T12:17:33.254Z,40
2018-12-13T12:18:43.060Z,40
2018-12-13T12:19:52.872Z,40
2018-12-13T12:21:03.161Z,40
2018-12-13T12:22:13.224Z,35
2018-12-13T12:23:22.779Z,35
2018-12-13T12:24:32.847Z,30
2018-12-13T12:25:42.894Z,30
2018-12-13T12:26:52.684Z,30
2018-12-13T12:28:02.754Z,30
2018-12-13T12:29:12.906Z,30
2018-12-13T12:30:22.741Z,30
2018-12-13T12:31:32.804Z,30
2018-12-13T12:32:42.861Z,30
2018-12-13T12:33:52.914Z,30
2018-12-13T12:35:02.975Z,30
2018-12-13T12:36:12.782Z,25
2018-12-13T12:37:22.599Z,25
2018-12-13T12:38:32.416Z,25
2018-12-13T12:39:42.576Z,25
2018-12-13T12:40:52.383Z,25
2018-12-13T12:42:02.179Z,25
2018-12-13T12:43:12.241Z,25
2018-12-13T12:44:22.297Z,25
2018-12-13T12:45:32.373Z,25
2018-12-13T12:46:42.429Z,30
2018-12-13T12:47:52.304Z,30
2018-12-13T12:49:02.376Z,35
2018-12-13T12:50:12.470Z,35
2018-12-13T12:51:22.544Z,35
2018-12-13T12:52:32.650Z,30
2018-12-13T12:53:42.712Z,30
2018-12-13T12:54:52.768Z,25
2018-12-13T12:56:02.567Z,25
2018-12-13T12:57:13.377Z,25
2018-12-13T12:58:23.594Z,30
2018-12-13T12:59:33.734Z,30
2018-12-13T13:00:43.801Z,25
2018-12-13T13:01:53.334Z,25
2018-12-13T13:03:03.405Z,25
2018-12-13T13:04:13.500Z,20
2018-12-13T13:05:23.549Z,20
2018-12-13T13:06:33.633Z,20
2018-12-13T13:07:43.713Z,20
2018-12-13T13:08:53.541Z,20
2018-12-13T13:10:03.369Z,20
2018-12-13T13:11:13.439Z,20
2018-12-13T13:12:23.491Z,15
2018-12-13T13:13:33.041Z,15
2018-12-13T13:14:43.092Z,15
2018-12-13T13:15:53.188Z,15
2018-12-13T13:17:05.231Z,15
2018-12-13T13:18:15.063Z,15
2018-12-13T13:19:25.115Z,15
2018-12-13T13:20:35.159Z,15
2018-12-13T13:21:45.325Z,15
2018-12-13T13:22:55.132Z,15
2018-12-13T13:24:05.482Z,15
2018-12-13T13:25:15.548Z,15
2018-12-13T13:26:25.605Z,20
2018-12-13T13:27:35.970Z,20
2018-12-13T13:28:46.051Z,15
2018-12-13T13:29:56.129Z,15
2018-12-13T13:31:06.179Z,15
2018-12-13T13:32:15.995Z,15
2018-12-13T13:33:26.076Z,15
2018-12-13T13:34:36.131Z,15
2018-12-13T13:35:46.203Z,15
2018-12-13T13:36:56.268Z,15
2018-12-13T13:38:06.345Z,15
2018-12-13T13:39:16.494Z,15
2018-12-13T13:40:26.803Z,15
2018-12-13T13:41:36.599Z,15
2018-12-13T13:42:46.660Z,15
2018-12-13T13:43:56.488Z,15
2018-12-13T13:45:06.340Z,15
2018-12-13T13:46:16.259Z,10
2018-12-13T13:47:26.151Z,10
2018-12-13T13:48:35.955Z,10
2018-12-13T13:49:46.027Z,10
2018-12-13T13:50:56.088Z,5
2018-12-13T13:52:06.179Z,5
2018-12-13T13:53:15.991Z,5
2018-12-13T13:54:25.809Z,5
2018-12-13T13:55:35.921Z,5
2018-12-13T13:56:46.030Z,5
2018-12-13T13:57:56.079Z,5
2018-12-13T13:59:05.663Z,5
2018-12-13T14:00:15.715Z,5
2018-12-13T14:01:25.523Z,5
2018-12-13T14:02:35.639Z,5
2018-12-13T14:03:45.704Z,5
2018-12-13T14:04:55.511Z,5
2018-12-13T14:06:05.943Z,5
2018-12-13T14:07:16.003Z,5
2018-12-13T14:08:26.089Z,5
2018-12-13T14:09:42.670Z,5
2018-12-13T14:10:52.769Z,5
2018-12-13T14:12:04.613Z,5
2018-12-13T14:13:14.438Z,5
2018-12-13T14:14:24.506Z,5
2018-12-13T14:15:34.573Z,5
2018-12-13T14:16:44.398Z,5
2018-12-13T14:17:54.195Z,5
2018-12-13T14:19:04.273Z,5
2018-12-13T14:20:14.732Z,5
2018-12-13T14:21:24.791Z,5
2018-12-13T14:22:34.580Z,5
2018-12-13T14:23:44.634Z,5
2018-12-13T14:24:54.444Z,5
2018-12-13T14:26:05.501Z,5
2018-12-13T14:27:15.799Z,5
2018-12-13T14:28:25.861Z,0
2018-12-13T14:29:36.026Z,0
2018-12-13T14:30:45.847Z,0
2018-12-13T14:31:55.931Z,0
2018-12-13T14:33:06.020Z,0
2018-12-13T14:34:16.102Z,0
2018-12-13T14:35:25.643Z,0
2018-12-13T14:36:35.699Z,0
2018-12-13T14:37:45.856Z,0
2018-12-13T14:38:56.285Z,0
2018-12-13T14:40:06.366Z,0
2018-12-13T14:41:16.176Z,0
2018-12-13T14:42:26.361Z,0
2018-12-13T14:43:36.563Z,0
2018-12-13T14:44:46.387Z,0
2018-12-13T14:45:56.192Z,0
2018-12-13T14:47:06.274Z,0
2018-12-13T14:48:16.135Z,0
2018-12-13T14:49:26.335Z,0
2018-12-13T14:50:36.385Z,0
2018-12-13T14:51:46.437Z,0
2018-12-13T14:52:56.859Z,0
2018-12-13T14:54:06.918Z,0
2018-12-13T14:55:17.003Z,0
2018-12-13T14:56:27.093Z,0
2018-12-13T14:57:37.175Z,0
2018-12-13T14:58:46.985Z,0
2018-12-13T14:59:56.816Z,0
2018-12-13T15:01:07.215Z,0
2018-12-13T15:02:17.278Z,0
2018-12-13T15:03:27.339Z,0
2018-12-13T15:04:37.420Z,0
2018-12-13T15:05:47.468Z,0
2018-12-13T15:06:57.578Z,0
2018-12-13T15:08:08.258Z,0
2018-12-13T15:09:18.337Z,0
2018-12-13T15:10:28.464Z,0
2018-12-13T15:11:38.532Z,0
2018-12-13T15:12:48.623Z,0
2018-12-13T15:13:58.705Z,0
2018-12-13T15:15:08.759Z,0
2018-12-13T15:16:18.902Z,0
2018-12-13T15:17:29.021Z,0
2018-12-13T15:18:39.096Z,0
2018-12-13T15:19:49.193Z,0
2018-12-13T15:20:59.025Z,0
2018-12-13T15:22:09.171Z,0
2018-12-13T15:23:18.988Z,0
2018-12-13T15:24:28.309Z,0
2018-12-13T15:25:38.394Z,0
2018-12-13T15:26:48.202Z,0
2018-12-13T15:27:58.015Z,0
2018-12-13T15:29:10.233Z,0
2018-12-13T15:30:19.882Z,0
2018-12-13T15:31:29.963Z,0
2018-12-13T15:32:40.255Z,0
2018-12-13T15:33:50.322Z,0
2018-12-13T15:35:00.329Z,0
2018-12-13T15:36:10.410Z,0
2018-12-13T15:37:20.495Z,0
2018-12-13T15:38:30.808Z,0
2018-12-13T15:39:40.871Z,0
2018-12-13T15:40:50.929Z,0
2018-12-13T15:42:01.012Z,0
2018-12-13T15:43:11.081Z,0
2018-12-13T15:44:21.152Z,0
2018-12-13T15:45:31.217Z,0
2018-12-13T15:46:41.040Z,0
2018-12-13T15:47:51.114Z,0
2018-12-13T15:49:01.426Z,0
2018-12-13T15:50:11.514Z,0
2018-12-13T15:51:21.415Z,0
2018-12-13T15:52:30.988Z,0
2018-12-13T15:53:40.841Z,0
2018-12-13T15:54:50.650Z,0
2018-12-13T15:56:00.780Z,0
2018-12-13T15:57:10.629Z,0
2018-12-13T15:58:20.444Z,0
2018-12-13T15:59:30.277Z,0
2018-12-13T16:00:40.354Z,0
2018-12-13T16:01:51.287Z,0
2018-12-13T16:03:04.323Z,0
2018-12-13T16:04:14.425Z,0
2018-12-13T16:05:24.499Z,0
2018-12-13T16:06:34.599Z,0
2018-12-13T16:07:44.655Z,0
2018-12-13T16:08:54.735Z,0
2018-12-13T16:10:11.143Z,0
2018-12-13T16:11:21.215Z,0
2018-12-13T16:12:31.044Z,0
2018-12-13T16:13:41.124Z,0
2018-12-13T16:14:50.940Z,0
2018-12-13T16:16:01.067Z,0
2018-12-13T16:17:11.642Z,0
2018-12-13T16:18:21.856Z,0
2018-12-13T16:19:31.673Z,0
2018-12-13T16:20:41.768Z,0
2018-12-13T16:21:51.902Z,0
2018-12-13T16:23:01.984Z,0
2018-12-13T16:24:11.818Z,0
2018-12-13T16:25:21.896Z,0
2018-12-13T16:26:31.978Z,0
2018-12-13T16:27:42.107Z,0
2018-12-13T16:28:52.180Z,0
2018-12-13T16:30:02.327Z,0
2018-12-13T16:31:12.407Z,0
2018-12-13T16:32:22.463Z,0
2018-12-13T16:33:32.523Z,0
2018-12-13T16:34:42.593Z,0
2018-12-13T16:35:52.662Z,0
2018-12-13T16:37:02.471Z,0
2018-12-13T16:38:12.531Z,0
2018-12-13T16:39:22.652Z,0
2018-12-13T16:40:32.761Z,0
2018-12-13T16:41:42.927Z,0
2018-12-13T16:42:52.782Z,0
2018-12-13T16:44:02.885Z,0
2018-12-13T16:45:12.958Z,0
2018-12-13T16:46:23.056Z,0
2018-12-13T16:47:32.921Z,0
2018-12-13T16:48:43.051Z,0
2018-12-13T16:49:53.111Z,0
2018-12-13T16:51:03.657Z,0
2018-12-13T16:52:13.733Z,0
2018-12-13T16:53:23.779Z,0
2018-12-13T16:54:33.919Z,0
2018-12-13T16:55:43.989Z,0
2018-12-13T16:56:54.051Z,0
2018-12-13T16:58:05.808Z,0
2018-12-13T16:59:15.657Z,0
2018-12-13T17:00:25.724Z,0
2018-12-13T17:01:35.564Z,0
2018-12-13T17:02:45.695Z,0
2018-12-13T17:03:55.804Z,0
2018-12-13T17:05:10.656Z,0
2018-12-13T17:06:20.741Z,0
2018-12-13T17:07:30.789Z,0
2018-12-13T17:08:40.884Z,0
2018-12-13T17:09:50.988Z,0
2018-12-13T17:11:01.289Z,0
2018-12-13T17:12:11.356Z,0
2018-12-13T17:13:21.426Z,0
2018-12-13T17:14:31.257Z,0
2018-12-13T17:15:41.544Z,0
2018-12-13T17:16:51.627Z,0
2018-12-13T17:18:01.933Z,0
2018-12-13T17:19:12.032Z,0
2018-12-13T17:20:22.133Z,0
2018-12-13T17:21:32.256Z,0
2018-12-13T17:22:42.349Z,0
2018-12-13T17:23:52.451Z,0
2018-12-13T17:25:02.519Z,0
2018-12-13T17:26:12.160Z,0
2018-12-13T17:27:21.975Z,0
2018-12-13T17:28:31.796Z,0
2018-12-13T17:29:41.876Z,0
2018-12-13T17:30:51.943Z,0
2018-12-13T17:32:02.144Z,0
2018-12-13T17:33:12.194Z,0
2018-12-13T17:34:22.283Z,0